X  CloseMetar Aviation Weather Data     EGLF Farnborough

Temperature

16°C Temperature

13°C Dewpoint

83% Humidity



Wind

10 KM/H

 6 MPH

 3 M/S

 5 KTS



40°
North East
Current Conditions

Light Rain Light Rain
Pressure 1012.92 (hPa) - 29.91 (in)
Visibility 6.2 (mi) - 10 (km)
Airport
Airport-code EGLF

Location Farnborough 5 (mi)

Metar:
EGLF 181420Z AUTO 04005KT 350V100 9999 -RA SCT001/// BKN045/// 16/13 Q1013 RERA

Time: 18-06-2019 15:20